createdAt,value
2022-12-14T00:01:56.850Z,57.80
2022-12-14T00:04:25.003Z,69.30
2022-12-14T00:06:53.140Z,63.60
2022-12-14T00:09:21.402Z,61.50
2022-12-14T00:11:50.396Z,54.30
2022-12-14T00:14:18.569Z,56.50
2022-12-14T00:16:46.633Z,59.30
2022-12-14T00:19:15.455Z,59.00
2022-12-14T00:21:43.523Z,63.90
2022-12-14T00:24:11.597Z,66.30
2022-12-14T00:26:39.948Z,68.80
2022-12-14T00:29:08.125Z,63.20
2022-12-14T00:31:36.628Z,61.00
2022-12-14T00:34:04.986Z,57.50
2022-12-14T00:36:33.062Z,66.70
2022-12-14T00:39:01.337Z,62.90
2022-12-14T00:41:29.509Z,55.20
2022-12-14T00:43:57.691Z,58.30
2022-12-14T00:46:25.866Z,63.70
2022-12-14T00:48:54.146Z,59.50
2022-12-14T00:51:23.223Z,64.50
2022-12-14T00:53:51.412Z,70.50
2022-12-14T00:56:19.479Z,59.30
2022-12-14T00:58:51.703Z,52.60
2022-12-14T01:01:21.166Z,61.10
2022-12-14T01:03:50.174Z,68.40
2022-12-14T01:06:20.564Z,66.10
2022-12-14T01:08:49.459Z,55.90
2022-12-14T01:11:17.651Z,58.40
2022-12-14T01:13:49.291Z,63.20
2022-12-14T01:16:18.397Z,54.10
2022-12-14T01:18:46.632Z,65.70
2022-12-14T01:21:16.340Z,59.10
2022-12-14T01:23:45.740Z,52.60
2022-12-14T01:26:16.639Z,59.00
2022-12-14T01:28:45.313Z,59.70
2022-12-14T01:31:15.547Z,62.40
2022-12-14T01:33:44.532Z,59.40
2022-12-14T01:36:15.289Z,65.80
2022-12-14T01:38:44.170Z,55.70
2022-12-14T01:41:23.920Z,64.70
2022-12-14T01:43:54.188Z,66.80
2022-12-14T01:46:27.523Z,52.80
2022-12-14T01:49:01.964Z,53.00
2022-12-14T01:51:31.685Z,72.40
2022-12-14T01:54:03.583Z,53.70
2022-12-14T01:56:35.723Z,60.10
2022-12-14T01:59:12.189Z,56.50
2022-12-14T02:01:40.945Z,57.80
2022-12-14T02:04:11.263Z,50.60
2022-12-14T02:06:43.513Z,50.70
2022-12-14T02:09:19.628Z,63.60
2022-12-14T02:11:55.796Z,56.50
2022-12-14T02:14:24.431Z,55.10
2022-12-14T02:16:53.608Z,67.80
2022-12-14T02:19:21.948Z,61.70
2022-12-14T02:22:17.405Z,58.90
2022-12-14T02:25:21.362Z,56.10
2022-12-14T02:28:10.805Z,52.00
2022-12-14T02:30:40.860Z,57.00
2022-12-14T02:33:28.553Z,54.30
2022-12-14T02:36:02.048Z,53.70
2022-12-14T02:38:45.645Z,59.20
2022-12-14T02:41:21.238Z,45.50
2022-12-14T02:44:01.104Z,57.80
2022-12-14T02:46:35.200Z,58.20
2022-12-14T02:49:10.481Z,66.60
2022-12-14T02:54:24.292Z,56.80
2022-12-14T02:56:59.535Z,37.00
2022-12-14T02:59:28.513Z,41.50
2022-12-14T03:01:57.518Z,57.80
2022-12-14T03:04:25.827Z,57.40
2022-12-14T03:07:02.133Z,60.00
2022-12-14T03:09:32.377Z,52.60
2022-12-14T03:12:06.503Z,50.10
2022-12-14T03:14:41.031Z,67.20
2022-12-14T03:17:19.470Z,67.70
2022-12-14T03:19:53.135Z,65.20
2022-12-14T03:22:26.211Z,73.90
2022-12-14T03:24:58.424Z,57.30
2022-12-14T03:27:31.298Z,58.50
2022-12-14T03:30:02.677Z,52.10
2022-12-14T03:32:33.761Z,57.50
2022-12-14T03:35:08.000Z,51.50
2022-12-14T03:37:42.200Z,48.80
2022-12-14T03:40:13.854Z,48.50
2022-12-14T03:42:56.950Z,55.70
2022-12-14T03:45:31.515Z,60.20
2022-12-14T03:48:10.970Z,57.60
2022-12-14T03:50:43.190Z,55.70
2022-12-14T03:53:14.676Z,51.20
2022-12-14T03:55:50.824Z,64.10
2022-12-14T03:58:34.513Z,53.10
2022-12-14T04:01:10.812Z,46.70
2022-12-14T04:03:50.062Z,45.80
2022-12-14T04:06:26.566Z,65.80
2022-12-14T04:09:04.136Z,64.20
2022-12-14T04:11:57.485Z,53.00
2022-12-14T04:14:49.851Z,48.20
2022-12-14T04:17:43.816Z,52.00
2022-12-14T04:20:16.719Z,48.40
2022-12-14T04:22:49.622Z,40.20
2022-12-14T04:25:39.281Z,49.90
2022-12-14T04:28:33.045Z,48.80
2022-12-14T04:31:07.005Z,44.60
2022-12-14T04:33:47.840Z,39.70
2022-12-14T04:36:21.961Z,42.20
2022-12-14T04:38:55.772Z,39.80
2022-12-14T04:41:29.603Z,58.60
2022-12-14T04:44:03.068Z,54.70
2022-12-14T04:46:40.371Z,59.80
2022-12-14T04:49:18.586Z,65.40
2022-12-14T04:51:53.435Z,54.90
2022-12-14T04:54:26.563Z,51.30
2022-12-14T04:57:00.801Z,56.80
2022-12-14T04:59:29.814Z,67.60
2022-12-14T05:02:09.522Z,65.00
2022-12-14T05:04:57.000Z,58.60
2022-12-14T05:07:37.854Z,49.30
2022-12-14T05:10:11.192Z,48.90
2022-12-14T05:12:46.648Z,49.60
2022-12-14T05:15:19.274Z,50.00
2022-12-14T05:17:47.947Z,46.90
2022-12-14T05:20:18.490Z,54.50
2022-12-14T05:22:46.574Z,45.40
2022-12-14T05:25:15.278Z,43.80
2022-12-14T05:27:43.837Z,50.00
2022-12-14T05:30:13.886Z,47.50
2022-12-14T05:32:42.033Z,38.60
2022-12-14T05:35:13.273Z,40.90
2022-12-14T05:37:42.092Z,48.00
2022-12-14T05:40:12.536Z,42.00
2022-12-14T05:42:44.742Z,37.50
2022-12-14T05:45:15.982Z,49.10
2022-12-14T05:47:44.452Z,50.10
2022-12-14T05:50:12.561Z,42.30
2022-12-14T05:52:40.690Z,43.00
2022-12-14T05:55:10.206Z,52.20
2022-12-14T05:57:38.692Z,55.30
2022-12-14T06:00:09.146Z,60.50
2022-12-14T06:02:37.275Z,54.20
2022-12-14T06:05:06.510Z,53.30
2022-12-14T06:07:34.573Z,50.30
2022-12-14T06:10:02.917Z,63.10
2022-12-14T06:12:31.321Z,54.90
2022-12-14T06:14:59.553Z,62.80
2022-12-14T06:17:27.783Z,58.50
2022-12-14T06:19:55.772Z,77.70
2022-12-14T06:22:24.508Z,79.60
2022-12-14T06:24:53.185Z,65.60
2022-12-14T06:27:21.295Z,94.90
2022-12-14T06:29:49.747Z,81.20
2022-12-14T06:32:17.848Z,80.20
2022-12-14T06:34:46.537Z,88.20
2022-12-14T06:37:15.497Z,70.30
2022-12-14T06:39:43.890Z,58.60
2022-12-14T06:42:11.992Z,69.60
2022-12-14T06:44:40.021Z,63.20
2022-12-14T06:47:08.103Z,61.10
2022-12-14T06:49:36.257Z,37.30
2022-12-14T06:52:04.681Z,49.50
2022-12-14T06:54:32.808Z,46.30
2022-12-14T06:57:01.077Z,47.50
2022-12-14T06:59:29.709Z,34.40
2022-12-14T07:01:57.859Z,29.20
2022-12-14T07:04:26.136Z,30.60
2022-12-14T07:06:54.186Z,48.90
2022-12-14T07:09:22.324Z,39.00
2022-12-14T07:11:50.952Z,28.20
2022-12-14T07:14:19.034Z,45.10
2022-12-14T07:16:48.597Z,49.50
2022-12-14T07:19:18.055Z,63.70
2022-12-14T07:21:46.355Z,64.90
2022-12-14T07:24:14.558Z,63.50
2022-12-14T07:26:42.610Z,56.20
2022-12-14T07:29:11.634Z,59.20
2022-12-14T07:31:39.800Z,63.70
2022-12-14T07:34:11.797Z,54.70
2022-12-14T07:36:40.096Z,53.30
2022-12-14T07:39:10.175Z,60.00
2022-12-14T07:41:38.243Z,53.20
2022-12-14T07:44:06.406Z,55.90
2022-12-14T07:46:34.963Z,54.70
2022-12-14T07:49:03.772Z,51.60
2022-12-14T07:51:35.212Z,50.90
2022-12-14T07:54:05.666Z,44.70
2022-12-14T07:56:35.749Z,50.50
2022-12-14T07:59:07.683Z,43.00
2022-12-14T08:01:37.374Z,49.60
2022-12-14T08:04:08.213Z,40.10
2022-12-14T08:06:37.955Z,54.60
2022-12-14T08:09:07.310Z,46.00
2022-12-14T08:11:35.902Z,47.10
2022-12-14T08:14:06.474Z,52.40
2022-12-14T08:16:34.855Z,46.00
2022-12-14T08:19:03.227Z,46.50
2022-12-14T08:21:32.283Z,51.20
2022-12-14T08:24:00.751Z,53.90
2022-12-14T08:26:35.246Z,52.90
2022-12-14T08:29:04.438Z,48.30
2022-12-14T08:31:33.234Z,50.10
2022-12-14T08:34:02.335Z,50.90
2022-12-14T08:36:33.351Z,50.80
2022-12-14T08:39:03.910Z,45.90
2022-12-14T08:41:33.307Z,50.00
2022-12-14T08:44:02.820Z,48.90
2022-12-14T08:46:33.811Z,38.70
2022-12-14T08:49:02.497Z,43.70
2022-12-14T08:51:30.713Z,47.10
2022-12-14T08:53:59.301Z,47.70
2022-12-14T08:56:28.457Z,44.50
2022-12-14T08:58:57.626Z,43.80
2022-12-14T09:01:32.984Z,46.50
2022-12-14T09:04:07.542Z,43.40
2022-12-14T09:06:37.747Z,45.30
2022-12-14T09:09:10.704Z,53.10
2022-12-14T09:11:43.839Z,39.70
2022-12-14T09:14:12.194Z,39.90
2022-12-14T09:16:40.494Z,38.80
2022-12-14T09:19:08.806Z,43.40
2022-12-14T09:21:37.786Z,47.40
2022-12-14T09:24:07.351Z,43.70
2022-12-14T09:26:35.810Z,44.10
2022-12-14T09:29:04.374Z,41.70
2022-12-14T09:31:32.503Z,48.50
2022-12-14T09:34:00.691Z,51.30
2022-12-14T09:36:29.175Z,50.90
2022-12-14T09:38:58.795Z,49.90
2022-12-14T09:41:46.555Z,44.40
2022-12-14T09:44:31.131Z,43.10
2022-12-14T09:47:06.583Z,41.40
2022-12-14T09:49:41.379Z,43.10
2022-12-14T09:52:15.631Z,46.80
2022-12-14T09:54:46.497Z,48.40
2022-12-14T09:57:27.459Z,46.40
2022-12-14T09:59:56.110Z,45.40
2022-12-14T10:02:34.776Z,46.90
2022-12-14T10:05:18.421Z,44.20
2022-12-14T10:07:56.674Z,48.70
2022-12-14T10:10:28.776Z,45.30
2022-12-14T10:13:10.378Z,49.00
2022-12-14T10:15:48.515Z,50.50
2022-12-14T10:18:59.089Z,45.70
2022-12-14T10:21:39.049Z,48.00
2022-12-14T10:24:15.427Z,50.70
2022-12-14T10:26:48.058Z,43.40
2022-12-14T10:29:25.683Z,48.90
2022-12-14T10:32:01.851Z,51.60
2022-12-14T10:34:32.075Z,51.40
2022-12-14T10:37:12.368Z,49.50
2022-12-14T10:39:51.218Z,52.10
2022-12-14T10:42:29.309Z,54.70
2022-12-14T10:45:38.992Z,48.90
2022-12-14T10:48:12.891Z,60.40
2022-12-14T10:50:53.617Z,56.40
2022-12-14T10:53:29.880Z,52.20
2022-12-14T10:56:04.002Z,60.90
2022-12-14T10:58:32.710Z,57.60
2022-12-14T11:01:01.121Z,64.00
2022-12-14T11:03:29.527Z,59.10
2022-12-14T11:06:02.470Z,48.10
2022-12-14T11:08:43.136Z,52.50
2022-12-14T11:11:21.196Z,59.00
2022-12-14T11:13:52.292Z,52.60
2022-12-14T11:16:32.057Z,49.90
2022-12-14T11:19:04.524Z,55.10
2022-12-14T11:21:35.573Z,48.90
2022-12-14T11:24:05.696Z,52.80
2022-12-14T11:26:37.868Z,51.50
2022-12-14T11:29:16.300Z,47.40
2022-12-14T11:31:47.475Z,51.80
2022-12-14T11:34:27.991Z,51.90
2022-12-14T11:36:56.360Z,46.80
2022-12-14T11:39:25.763Z,48.10
2022-12-14T11:42:03.977Z,54.80
2022-12-14T11:44:35.897Z,36.80
2022-12-14T11:47:11.287Z,41.80
2022-12-14T11:49:45.157Z,43.90
2022-12-14T11:52:16.515Z,52.60
2022-12-14T11:54:50.107Z,54.20
2022-12-14T11:57:26.128Z,47.20
2022-12-14T11:59:57.514Z,46.20
2022-12-14T12:02:29.397Z,43.40
2022-12-14T12:05:05.026Z,51.80
2022-12-14T12:07:36.020Z,42.40
2022-12-14T12:10:15.688Z,37.00
2022-12-14T12:12:54.117Z,41.60
2022-12-14T12:15:26.600Z,36.10
2022-12-14T12:18:00.361Z,40.00
2022-12-14T12:20:34.761Z,37.20
2022-12-14T12:23:07.651Z,54.20
2022-12-14T12:25:38.276Z,44.20
2022-12-14T12:28:17.695Z,54.00
2022-12-14T12:30:51.134Z,50.40
2022-12-14T12:33:27.923Z,39.50
2022-12-14T12:36:00.065Z,32.70
2022-12-14T12:38:49.497Z,48.30
2022-12-14T12:41:32.842Z,30.90
2022-12-14T12:44:11.768Z,52.70
2022-12-14T12:47:15.278Z,48.20
2022-12-14T12:49:38.637Z,45.90
2022-12-14T12:52:14.932Z,55.00
2022-12-14T12:54:52.352Z,45.40
2022-12-14T12:57:22.114Z,54.30
2022-12-14T12:59:54.930Z,40.60
2022-12-14T13:02:31.024Z,60.60
2022-12-14T13:05:29.055Z,50.60
2022-12-14T13:07:56.828Z,51.10
2022-12-14T13:10:29.607Z,44.70
2022-12-14T13:13:02.891Z,44.60
2022-12-14T13:15:35.842Z,42.90
2022-12-14T13:18:27.580Z,44.60
2022-12-14T13:21:05.715Z,46.90
2022-12-14T13:23:44.758Z,39.60
2022-12-14T13:26:56.690Z,44.00
2022-12-14T13:29:29.414Z,36.40
2022-12-14T13:32:05.970Z,49.50
2022-12-14T13:34:46.903Z,48.90
2022-12-14T13:37:37.824Z,30.00
2022-12-14T13:40:32.515Z,41.00
2022-12-14T13:43:14.568Z,38.90
2022-12-14T13:45:45.613Z,36.10
2022-12-14T13:48:24.082Z,36.20
2022-12-14T13:51:02.166Z,39.10
2022-12-14T13:53:36.056Z,18.40
2022-12-14T13:56:06.128Z,20.30
2022-12-14T13:58:39.378Z,34.10
2022-12-14T14:01:11.633Z,40.00
2022-12-14T14:03:51.359Z,36.40
2022-12-14T14:06:35.430Z,39.70
2022-12-14T14:09:36.167Z,34.20
2022-12-14T14:12:27.244Z,41.50
2022-12-14T14:14:58.331Z,32.90
2022-12-14T14:17:35.003Z,38.80
2022-12-14T14:20:34.048Z,42.90
2022-12-14T14:23:36.743Z,41.00
2022-12-14T14:26:29.418Z,40.80
2022-12-14T14:29:24.745Z,39.00
2022-12-14T14:31:56.080Z,33.90
2022-12-14T14:34:33.882Z,30.50
2022-12-14T14:37:23.036Z,53.70
2022-12-14T14:40:16.776Z,45.30
2022-12-14T14:42:53.819Z,40.80
2022-12-14T14:45:38.693Z,45.00
2022-12-14T14:48:21.621Z,56.80
2022-12-14T14:51:01.868Z,43.70
2022-12-14T14:53:32.518Z,49.00
2022-12-14T14:56:19.190Z,44.90
2022-12-14T14:58:47.589Z,36.70
2022-12-14T15:01:28.149Z,44.10
2022-12-14T15:04:05.789Z,36.50
2022-12-14T15:06:43.287Z,44.50
2022-12-14T15:09:19.817Z,43.50
2022-12-14T15:11:51.064Z,42.70
2022-12-14T15:14:32.262Z,36.60
2022-12-14T15:17:13.640Z,49.80
2022-12-14T15:19:48.174Z,59.30
2022-12-14T15:22:19.137Z,55.20
2022-12-14T15:24:50.446Z,39.20
2022-12-14T15:27:26.644Z,58.70
2022-12-14T15:29:58.370Z,64.30
2022-12-14T15:32:27.197Z,49.50
2022-12-14T15:34:57.434Z,31.20
2022-12-14T15:37:36.940Z,51.70
2022-12-14T15:40:12.200Z,36.10
2022-12-14T15:42:47.355Z,60.70
2022-12-14T15:47:44.991Z,43.20
2022-12-14T15:50:23.014Z,42.40
2022-12-14T15:52:52.600Z,45.20
2022-12-14T15:55:38.800Z,44.00
2022-12-14T15:58:14.721Z,44.30
2022-12-14T16:00:46.697Z,42.00
2022-12-14T16:03:23.933Z,34.30
2022-12-14T16:05:53.058Z,38.40
2022-12-14T16:08:22.803Z,35.90
2022-12-14T16:10:53.348Z,36.50
2022-12-14T16:13:27.300Z,48.90
2022-12-14T16:15:57.725Z,46.20
2022-12-14T16:18:26.323Z,39.60
2022-12-14T16:21:00.148Z,36.00
2022-12-14T16:23:33.824Z,43.50
2022-12-14T16:26:18.433Z,41.10
2022-12-14T16:28:48.180Z,54.20
2022-12-14T16:31:19.894Z,48.90
2022-12-14T16:34:05.305Z,30.50
2022-12-14T16:36:36.557Z,38.70
2022-12-14T16:39:14.334Z,41.20
2022-12-14T16:41:54.618Z,46.30
2022-12-14T16:44:34.773Z,39.10
2022-12-14T16:47:26.016Z,37.00
2022-12-14T16:49:56.219Z,50.30
2022-12-14T16:52:26.582Z,46.00
2022-12-14T16:55:13.484Z,24.70
2022-12-14T16:57:50.924Z,34.50
2022-12-14T17:00:24.198Z,36.70
2022-12-14T17:02:58.914Z,51.90
2022-12-14T17:05:33.128Z,30.20
2022-12-14T17:08:01.476Z,38.00
2022-12-14T17:10:30.254Z,47.90
2022-12-14T17:12:59.651Z,66.80
2022-12-14T17:15:30.585Z,46.40
2022-12-14T17:18:01.656Z,37.40
2022-12-14T17:20:34.237Z,41.90
2022-12-14T17:23:04.324Z,40.80
2022-12-14T17:25:33.107Z,48.00
2022-12-14T17:28:01.318Z,48.50
2022-12-14T17:30:29.691Z,51.40
2022-12-14T17:32:58.465Z,47.40
2022-12-14T17:35:30.235Z,54.20
2022-12-14T17:37:58.918Z,54.30
2022-12-14T17:40:27.629Z,63.50
2022-12-14T17:42:58.431Z,45.10
2022-12-14T17:45:28.593Z,56.00
2022-12-14T17:47:57.808Z,59.70
2022-12-14T17:50:26.263Z,53.10
2022-12-14T17:52:54.931Z,64.50
2022-12-14T17:55:24.958Z,61.70
2022-12-14T17:57:53.952Z,31.90
2022-12-14T18:00:42.708Z,53.20
2022-12-14T18:03:12.458Z,55.60
2022-12-14T18:05:48.045Z,65.20
2022-12-14T18:08:17.272Z,56.40
2022-12-14T18:10:46.180Z,58.50
2022-12-14T18:13:14.900Z,50.60
2022-12-14T18:15:45.224Z,50.20
2022-12-14T18:18:19.899Z,53.50
2022-12-14T18:20:52.228Z,65.70
2022-12-14T18:23:21.166Z,61.50
2022-12-14T18:25:51.762Z,58.60
2022-12-14T18:28:21.542Z,62.10
2022-12-14T18:30:52.684Z,61.00
2022-12-14T18:33:23.516Z,55.00
2022-12-14T18:35:53.014Z,53.80
2022-12-14T18:38:21.594Z,58.00
2022-12-14T18:40:52.158Z,60.20
2022-12-14T18:43:23.174Z,58.80
2022-12-14T18:45:52.799Z,63.70
2022-12-14T18:48:21.757Z,59.40
2022-12-14T18:50:51.751Z,59.40
2022-12-14T18:53:22.260Z,46.40
2022-12-14T18:55:51.024Z,64.40
2022-12-14T18:58:21.426Z,65.30
2022-12-14T19:00:51.775Z,61.00
2022-12-14T19:03:20.287Z,56.90
2022-12-14T19:05:48.776Z,69.60
2022-12-14T19:08:17.625Z,63.70
2022-12-14T19:10:47.597Z,57.40
2022-12-14T19:13:26.123Z,47.70
2022-12-14T19:15:55.169Z,50.50
2022-12-14T19:18:24.062Z,43.80
2022-12-14T19:20:52.209Z,52.70
2022-12-14T19:23:20.525Z,45.60
2022-12-14T19:25:49.102Z,49.80
2022-12-14T19:28:33.505Z,53.70
2022-12-14T19:31:03.288Z,72.30
2022-12-14T19:33:32.347Z,59.30
2022-12-14T19:36:03.984Z,65.70
2022-12-14T19:38:33.873Z,64.30
2022-12-14T19:41:05.490Z,63.00
2022-12-14T19:43:34.708Z,60.80
2022-12-14T19:46:07.589Z,59.60
2022-12-14T19:48:37.214Z,49.60
2022-12-14T19:51:06.754Z,43.70
2022-12-14T19:53:35.553Z,59.30
2022-12-14T19:56:04.977Z,54.60
2022-12-14T19:58:33.239Z,54.60
2022-12-14T20:01:02.027Z,53.30
2022-12-14T20:03:30.837Z,43.90
2022-12-14T20:06:00.026Z,57.70
2022-12-14T20:08:30.098Z,52.10
2022-12-14T20:10:58.399Z,54.40
2022-12-14T20:13:28.827Z,52.90
2022-12-14T20:15:58.725Z,52.30
2022-12-14T20:18:27.911Z,60.50
2022-12-14T20:21:02.562Z,54.90
2022-12-14T20:23:34.791Z,72.90
2022-12-14T20:26:05.391Z,55.60
2022-12-14T20:28:34.081Z,65.30
2022-12-14T20:31:06.406Z,57.70
2022-12-14T20:33:35.154Z,64.10
2022-12-14T20:36:04.832Z,62.50
2022-12-14T20:38:33.752Z,54.30
2022-12-14T20:41:05.890Z,55.90
2022-12-14T20:43:35.552Z,60.80
2022-12-14T20:46:04.984Z,49.00
2022-12-14T20:48:33.442Z,58.00
2022-12-14T20:51:02.954Z,51.50
2022-12-14T20:53:32.075Z,43.70
2022-12-14T20:56:04.238Z,46.80
2022-12-14T20:58:32.286Z,56.90
2022-12-14T21:01:06.838Z,65.20
2022-12-14T21:03:35.889Z,66.50
2022-12-14T21:06:05.676Z,66.40
2022-12-14T21:08:51.896Z,56.80
2022-12-14T21:11:38.950Z,53.40
2022-12-14T21:14:07.128Z,68.50
2022-12-14T21:16:35.605Z,70.50
2022-12-14T21:19:04.466Z,47.60
2022-12-14T21:21:32.939Z,57.50
2022-12-14T21:24:01.109Z,56.50
2022-12-14T21:26:29.230Z,60.70
2022-12-14T21:28:57.692Z,56.10
2022-12-14T21:31:25.907Z,49.90
2022-12-14T21:33:55.160Z,56.50
2022-12-14T21:36:23.445Z,61.20
2022-12-14T21:38:52.537Z,57.40
2022-12-14T21:41:39.242Z,36.20
2022-12-14T21:44:07.623Z,52.30
2022-12-14T21:46:36.268Z,52.70
2022-12-14T21:49:06.054Z,52.30
2022-12-14T21:51:34.576Z,50.70
2022-12-14T21:54:03.617Z,47.00
2022-12-14T21:56:51.321Z,44.60
2022-12-14T21:59:25.284Z,48.60
2022-12-14T22:01:54.705Z,50.00
2022-12-14T22:04:23.949Z,43.10
2022-12-14T22:06:52.549Z,48.40
2022-12-14T22:09:21.299Z,50.50
2022-12-14T22:11:49.910Z,44.00
2022-12-14T22:14:19.853Z,52.90
2022-12-14T22:16:48.577Z,52.30
2022-12-14T22:19:19.056Z,55.10
2022-12-14T22:21:47.841Z,53.20
2022-12-14T22:24:17.430Z,54.40
2022-12-14T22:26:46.020Z,49.40
2022-12-14T22:29:15.849Z,48.10
2022-12-14T22:31:44.431Z,52.30
2022-12-14T22:34:16.589Z,54.70
2022-12-14T22:36:45.010Z,50.00
2022-12-14T22:39:14.003Z,50.50
2022-12-14T22:41:42.445Z,46.10
2022-12-14T22:44:12.255Z,50.50
2022-12-14T22:46:41.050Z,48.00
2022-12-14T22:49:10.251Z,46.30
2022-12-14T22:51:38.427Z,46.40
2022-12-14T22:54:06.747Z,53.10
2022-12-14T22:56:41.044Z,55.60
2022-12-14T22:59:14.693Z,49.70
2022-12-14T23:01:43.655Z,62.60
2022-12-14T23:04:18.030Z,51.40
2022-12-14T23:06:46.345Z,45.00
2022-12-14T23:09:32.871Z,47.80
2022-12-14T23:12:21.905Z,54.70
2022-12-14T23:15:08.696Z,53.20
2022-12-14T23:17:55.624Z,44.30
2022-12-14T23:20:41.940Z,40.80
2022-12-14T23:23:28.767Z,47.20
2022-12-14T23:26:20.080Z,46.80
2022-12-14T23:29:06.469Z,46.40
2022-12-14T23:31:53.277Z,53.20
2022-12-14T23:34:39.753Z,44.40
2022-12-14T23:37:26.473Z,49.30
2022-12-14T23:40:12.882Z,52.90
2022-12-14T23:43:00.101Z,56.40
2022-12-14T23:45:46.344Z,54.80
2022-12-14T23:48:33.140Z,39.90
2022-12-14T23:51:20.659Z,42.40
2022-12-14T23:54:07.163Z,50.80
2022-12-14T23:56:54.719Z,41.20
2022-12-14T23:59:41.108Z,39.00
